createdAt,value
2023-01-29T00:02:14.252Z,49.60
2023-01-29T00:04:41.375Z,49.80
2023-01-29T00:07:08.714Z,49.90
2023-01-29T00:09:35.584Z,50.60
2023-01-29T00:12:02.499Z,49.80
2023-01-29T00:14:29.516Z,49.90
2023-01-29T00:16:56.480Z,50.00
2023-01-29T00:19:23.413Z,50.00
2023-01-29T00:21:50.269Z,50.10
2023-01-29T00:24:17.178Z,50.10
2023-01-29T00:26:44.310Z,50.10
2023-01-29T00:29:11.174Z,50.10
2023-01-29T00:31:38.152Z,50.20
2023-01-29T00:34:05.077Z,50.20
2023-01-29T00:36:31.972Z,50.00
2023-01-29T00:39:00.694Z,50.10
2023-01-29T00:41:50.844Z,50.10
2023-01-29T00:44:36.750Z,50.00
2023-01-29T00:47:04.088Z,50.10
2023-01-29T00:49:31.343Z,50.00
2023-01-29T00:52:17.116Z,50.00
2023-01-29T00:54:43.967Z,50.00
2023-01-29T00:57:10.820Z,49.90
2023-01-29T00:59:37.737Z,50.00
2023-01-29T01:02:24.051Z,49.90
2023-01-29T01:04:50.960Z,50.00
2023-01-29T01:07:17.814Z,50.00
2023-01-29T01:10:03.211Z,49.90
2023-01-29T01:12:31.151Z,50.00
2023-01-29T01:14:57.986Z,50.70
2023-01-29T01:17:25.225Z,50.00
2023-01-29T01:19:52.277Z,50.00
2023-01-29T01:22:19.227Z,50.10
2023-01-29T01:24:46.166Z,49.90
2023-01-29T01:27:13.814Z,50.00
2023-01-29T01:29:41.099Z,50.00
2023-01-29T01:32:08.091Z,50.10
2023-01-29T01:34:35.094Z,50.10
2023-01-29T01:37:01.960Z,50.10
2023-01-29T01:39:28.855Z,50.00
2023-01-29T01:41:56.003Z,50.00
2023-01-29T01:44:53.600Z,50.00
2023-01-29T01:47:43.161Z,49.90
2023-01-29T01:50:19.120Z,49.90
2023-01-29T01:52:50.713Z,49.90
2023-01-29T01:55:21.629Z,49.90
2023-01-29T01:57:55.175Z,50.00
2023-01-29T02:00:25.623Z,49.90
2023-01-29T02:03:12.078Z,49.80
2023-01-29T02:05:58.913Z,49.80
2023-01-29T02:09:18.770Z,49.80
2023-01-29T02:11:45.622Z,49.80
2023-01-29T02:14:12.651Z,49.80
2023-01-29T02:16:39.795Z,49.90
2023-01-29T02:19:17.325Z,49.90
2023-01-29T02:22:22.859Z,50.00
2023-01-29T02:24:55.742Z,50.00
2023-01-29T02:27:37.547Z,50.00
2023-01-29T02:30:12.535Z,50.00
2023-01-29T02:32:54.503Z,49.90
2023-01-29T02:35:30.170Z,50.00
2023-01-29T02:38:41.310Z,50.00
2023-01-29T02:41:27.998Z,50.10
2023-01-29T02:44:24.843Z,50.00
2023-01-29T02:47:04.108Z,50.00
2023-01-29T02:49:37.680Z,50.00
2023-01-29T02:52:36.099Z,50.00
2023-01-29T02:55:23.561Z,50.00
2023-01-29T02:57:53.106Z,49.90
2023-01-29T03:00:24.512Z,50.00
2023-01-29T03:03:25.080Z,49.90
2023-01-29T03:06:22.432Z,49.90
2023-01-29T03:09:01.444Z,49.80
2023-01-29T03:11:59.073Z,49.90
2023-01-29T03:14:54.351Z,49.80
2023-01-29T03:17:26.991Z,49.80
2023-01-29T03:19:54.336Z,49.90
2023-01-29T03:22:23.433Z,49.90
2023-01-29T03:25:18.183Z,49.80
2023-01-29T03:28:18.410Z,49.80
2023-01-29T03:31:16.088Z,49.70
2023-01-29T03:33:48.844Z,49.90
2023-01-29T03:36:38.016Z,50.00
2023-01-29T03:39:09.563Z,49.80
2023-01-29T03:41:58.945Z,49.90
2023-01-29T03:44:33.496Z,49.80
2023-01-29T03:47:31.454Z,49.80
2023-01-29T03:50:24.018Z,49.70
2023-01-29T03:52:59.651Z,49.80
2023-01-29T03:55:32.318Z,49.90
2023-01-29T03:58:14.738Z,49.80
2023-01-29T04:00:46.966Z,49.90
2023-01-29T04:03:34.264Z,49.90
2023-01-29T04:06:17.380Z,50.00
2023-01-29T04:08:54.774Z,49.80
2023-01-29T04:11:23.046Z,49.90
2023-01-29T04:13:51.450Z,49.80
2023-01-29T04:16:22.905Z,49.60
2023-01-29T04:18:50.387Z,49.60
2023-01-29T04:21:18.638Z,49.70
2023-01-29T04:23:45.499Z,49.50
2023-01-29T04:26:35.477Z,49.50
2023-01-29T04:29:46.733Z,49.50
2023-01-29T04:32:40.858Z,49.40
2023-01-29T04:35:30.850Z,49.40
2023-01-29T04:38:12.901Z,49.40
2023-01-29T04:41:15.347Z,49.30
2023-01-29T04:43:58.734Z,49.40
2023-01-29T04:46:39.433Z,49.30
2023-01-29T04:49:18.502Z,49.40
2023-01-29T04:51:57.366Z,49.40
2023-01-29T04:54:48.919Z,49.40
2023-01-29T04:57:33.746Z,49.50
2023-01-29T05:00:09.000Z,49.60
2023-01-29T05:02:39.453Z,49.60
2023-01-29T05:05:08.473Z,49.60
2023-01-29T05:07:38.586Z,49.50
2023-01-29T05:10:09.286Z,49.40
2023-01-29T05:12:38.511Z,49.50
2023-01-29T05:15:11.233Z,49.40
2023-01-29T05:17:38.367Z,49.40
2023-01-29T05:20:06.180Z,49.40
2023-01-29T05:22:36.125Z,49.50
2023-01-29T05:25:03.051Z,49.30
2023-01-29T05:27:53.033Z,49.20
2023-01-29T05:30:19.933Z,49.20
2023-01-29T05:32:46.873Z,49.10
2023-01-29T05:35:14.063Z,49.20
2023-01-29T05:37:41.372Z,49.30
2023-01-29T05:40:09.749Z,49.10
2023-01-29T05:42:36.866Z,48.90
2023-01-29T05:45:04.227Z,48.90
2023-01-29T05:47:31.102Z,48.90
2023-01-29T05:49:57.978Z,48.80
2023-01-29T05:52:24.842Z,48.70
2023-01-29T05:54:51.675Z,48.50
2023-01-29T05:57:18.539Z,48.50
2023-01-29T05:59:45.386Z,48.40
2023-01-29T06:02:12.329Z,48.40
2023-01-29T06:04:39.211Z,48.50
2023-01-29T06:07:06.061Z,48.40
2023-01-29T06:09:32.988Z,48.40
2023-01-29T06:11:59.966Z,48.30
2023-01-29T06:14:26.825Z,48.10
2023-01-29T06:16:53.698Z,48.10
2023-01-29T06:19:20.863Z,48.00
2023-01-29T06:21:47.709Z,48.00
2023-01-29T06:24:14.734Z,47.90
2023-01-29T06:26:41.697Z,47.80
2023-01-29T06:29:08.518Z,47.70
2023-01-29T06:31:39.723Z,47.80
2023-01-29T06:34:09.897Z,47.80
2023-01-29T06:36:36.785Z,47.80
2023-01-29T06:39:04.620Z,47.90
2023-01-29T06:41:31.465Z,47.90
2023-01-29T06:43:58.370Z,48.10
2023-01-29T06:46:25.251Z,48.00
2023-01-29T06:48:52.244Z,48.00
2023-01-29T06:51:19.098Z,48.00
2023-01-29T06:53:46.747Z,48.10
2023-01-29T06:56:13.871Z,48.10
2023-01-29T06:58:40.677Z,48.00
2023-01-29T07:01:09.593Z,48.00
2023-01-29T07:03:36.663Z,48.10
2023-01-29T07:06:03.909Z,48.00
2023-01-29T07:08:31.237Z,48.00
2023-01-29T07:11:01.934Z,48.00
2023-01-29T07:13:29.079Z,48.00
2023-01-29T07:16:03.090Z,48.00
2023-01-29T07:18:30.533Z,48.10
2023-01-29T07:20:58.039Z,48.10
2023-01-29T07:23:25.389Z,48.20
2023-01-29T07:25:52.315Z,48.20
2023-01-29T07:28:20.690Z,48.30
2023-01-29T07:30:47.750Z,48.20
2023-01-29T07:33:14.706Z,48.20
2023-01-29T07:35:43.268Z,48.30
2023-01-29T07:38:11.099Z,48.40
2023-01-29T07:40:38.380Z,48.40
2023-01-29T07:43:07.153Z,48.40
2023-01-29T07:45:38.817Z,48.10
2023-01-29T07:48:07.388Z,48.20
2023-01-29T07:50:35.270Z,48.30
2023-01-29T07:53:02.800Z,48.40
2023-01-29T07:55:29.987Z,48.20
2023-01-29T07:58:01.625Z,48.30
2023-01-29T08:00:29.899Z,48.10
2023-01-29T08:03:08.015Z,48.00
2023-01-29T08:05:34.891Z,48.10
2023-01-29T08:08:07.038Z,47.80
2023-01-29T08:10:39.763Z,47.70
2023-01-29T08:13:08.202Z,47.40
2023-01-29T08:18:23.078Z,48.00
2023-01-29T08:20:49.878Z,48.50
2023-01-29T08:23:16.907Z,48.20
2023-01-29T08:25:43.997Z,48.50
2023-01-29T08:28:11.851Z,48.50
2023-01-29T08:30:39.008Z,48.20
2023-01-29T08:33:05.974Z,47.00
2023-01-29T08:35:33.033Z,46.10
2023-01-29T08:38:02.163Z,44.90
2023-01-29T08:40:34.195Z,43.80
2023-01-29T08:43:04.147Z,42.70
2023-01-29T08:45:34.763Z,41.50
2023-01-29T08:48:01.924Z,40.30
2023-01-29T08:50:33.025Z,39.70
2023-01-29T08:53:01.359Z,38.40
2023-01-29T08:55:29.283Z,37.60
2023-01-29T08:57:57.436Z,36.70
2023-01-29T09:00:24.818Z,35.40
2023-01-29T09:02:51.736Z,34.60
2023-01-29T09:05:19.034Z,34.20
2023-01-29T09:07:46.259Z,33.30
2023-01-29T09:10:13.577Z,32.60
2023-01-29T09:12:40.436Z,32.40
2023-01-29T09:15:07.890Z,31.40
2023-01-29T09:17:35.097Z,30.90
2023-01-29T09:20:02.094Z,29.90
2023-01-29T09:22:29.202Z,29.60
2023-01-29T09:24:56.051Z,29.70
2023-01-29T09:27:22.977Z,29.90
2023-01-29T09:29:49.816Z,30.40
2023-01-29T09:32:26.519Z,30.60
2023-01-29T09:35:03.575Z,30.90
2023-01-29T09:37:30.411Z,31.50
2023-01-29T09:39:57.224Z,31.80
2023-01-29T09:42:42.044Z,32.60
2023-01-29T09:45:21.859Z,33.50
2023-01-29T09:47:48.969Z,34.40
2023-01-29T09:50:21.821Z,35.40
2023-01-29T09:52:59.161Z,36.00
2023-01-29T09:55:32.686Z,36.60
2023-01-29T09:58:19.744Z,36.10
2023-01-29T10:01:11.210Z,35.70
2023-01-29T10:04:08.616Z,35.60
2023-01-29T10:06:56.604Z,35.60
2023-01-29T10:09:43.096Z,35.80
2023-01-29T10:12:12.994Z,35.40
2023-01-29T10:14:59.717Z,35.70
2023-01-29T10:18:09.150Z,36.00
2023-01-29T10:20:47.736Z,36.50
2023-01-29T10:23:17.344Z,37.10
2023-01-29T10:25:46.038Z,36.80
2023-01-29T10:28:48.577Z,37.00
2023-01-29T10:31:15.480Z,37.20
2023-01-29T10:34:01.060Z,37.20
2023-01-29T10:36:49.892Z,36.90
2023-01-29T10:39:19.096Z,37.70
2023-01-29T10:41:55.030Z,37.40
2023-01-29T10:44:37.311Z,37.50
2023-01-29T10:47:32.466Z,37.80
2023-01-29T10:50:33.501Z,37.60
2023-01-29T10:53:20.052Z,37.90
2023-01-29T10:55:49.703Z,37.80
2023-01-29T10:58:28.438Z,37.90
2023-01-29T11:00:55.466Z,37.90
2023-01-29T11:03:29.331Z,38.30
2023-01-29T11:05:59.289Z,38.40
2023-01-29T11:08:54.585Z,38.60
2023-01-29T11:11:26.297Z,38.60
2023-01-29T11:14:00.258Z,38.50
2023-01-29T11:16:29.088Z,38.30
2023-01-29T11:19:01.639Z,39.40
2023-01-29T11:21:29.727Z,38.00
2023-01-29T11:24:18.751Z,38.40
2023-01-29T11:26:49.073Z,38.70
2023-01-29T11:29:33.927Z,38.80
2023-01-29T11:32:11.274Z,39.00
2023-01-29T11:35:19.373Z,38.70
2023-01-29T11:37:47.313Z,38.70
2023-01-29T11:40:20.046Z,38.70
2023-01-29T11:42:48.181Z,38.60
2023-01-29T11:45:23.789Z,38.40
2023-01-29T11:47:55.577Z,38.60
2023-01-29T11:50:29.200Z,38.80
2023-01-29T11:52:56.683Z,38.70
2023-01-29T11:55:38.006Z,38.50
2023-01-29T11:58:33.173Z,38.40
2023-01-29T12:01:01.214Z,38.50
2023-01-29T12:03:49.391Z,38.40
2023-01-29T12:06:24.239Z,38.50
2023-01-29T12:08:58.040Z,38.50
2023-01-29T12:11:33.431Z,38.40
2023-01-29T12:14:03.235Z,39.00
2023-01-29T12:16:32.813Z,39.60
2023-01-29T12:19:26.545Z,39.70
2023-01-29T12:22:04.023Z,39.20
2023-01-29T12:25:03.900Z,38.80
2023-01-29T12:27:48.094Z,37.90
2023-01-29T12:30:27.800Z,35.80
2023-01-29T12:33:09.334Z,34.20
2023-01-29T12:35:43.647Z,33.10
2023-01-29T12:38:22.351Z,32.10
2023-01-29T12:40:57.516Z,31.40
2023-01-29T12:43:28.706Z,30.70
2023-01-29T12:45:59.448Z,30.20
2023-01-29T12:48:33.773Z,30.10
2023-01-29T12:51:12.176Z,30.80
2023-01-29T12:54:00.776Z,31.00
2023-01-29T12:56:34.245Z,31.40
2023-01-29T12:59:04.800Z,31.60
2023-01-29T13:02:06.062Z,33.00
2023-01-29T13:04:41.421Z,32.70
2023-01-29T13:07:14.182Z,33.20
2023-01-29T13:09:46.193Z,33.50
2023-01-29T13:12:18.325Z,33.90
2023-01-29T13:14:50.459Z,33.90
2023-01-29T13:17:28.254Z,34.10
2023-01-29T13:19:59.032Z,34.20
2023-01-29T13:22:33.752Z,34.60
2023-01-29T13:25:05.240Z,34.90
2023-01-29T13:27:35.459Z,35.10
2023-01-29T13:30:02.822Z,35.00
2023-01-29T13:32:31.854Z,35.30
2023-01-29T13:35:01.477Z,35.60
2023-01-29T13:37:35.416Z,35.30
2023-01-29T13:40:03.247Z,35.50
2023-01-29T13:42:47.086Z,35.80
2023-01-29T13:45:28.124Z,35.40
2023-01-29T13:48:24.329Z,35.00
2023-01-29T13:50:52.246Z,35.00
2023-01-29T13:53:26.847Z,35.40
2023-01-29T13:55:53.821Z,35.50
2023-01-29T13:58:33.002Z,35.20
2023-01-29T14:01:01.636Z,35.40
2023-01-29T14:03:39.898Z,35.70
2023-01-29T14:06:38.096Z,35.70
2023-01-29T14:09:24.943Z,35.90
2023-01-29T14:11:52.672Z,35.90
2023-01-29T14:14:50.270Z,35.70
2023-01-29T14:17:19.437Z,35.90
2023-01-29T14:19:51.184Z,35.90
2023-01-29T14:22:27.239Z,36.10
2023-01-29T14:24:58.220Z,36.30
2023-01-29T14:27:25.831Z,36.50
2023-01-29T14:30:02.813Z,36.90
2023-01-29T14:32:30.407Z,36.60
2023-01-29T14:35:02.797Z,36.30
2023-01-29T14:37:39.136Z,36.30
2023-01-29T14:40:11.882Z,36.80
2023-01-29T14:43:06.635Z,36.80
2023-01-29T14:45:39.254Z,37.00
2023-01-29T14:48:12.375Z,37.10
2023-01-29T14:50:53.494Z,37.10
2023-01-29T14:53:45.951Z,37.20
2023-01-29T14:56:15.951Z,37.40
2023-01-29T14:58:57.257Z,37.10
2023-01-29T15:01:30.690Z,37.10
2023-01-29T15:04:13.359Z,37.10
2023-01-29T15:07:04.700Z,37.20
2023-01-29T15:09:46.403Z,37.10
2023-01-29T15:12:24.779Z,37.30
2023-01-29T15:15:17.885Z,37.30
2023-01-29T15:18:17.709Z,37.60
2023-01-29T15:20:45.002Z,37.50
2023-01-29T15:23:29.702Z,37.30
2023-01-29T15:26:03.373Z,37.50
2023-01-29T15:28:32.319Z,37.50
2023-01-29T15:31:04.294Z,37.40
2023-01-29T15:33:32.305Z,37.80
2023-01-29T15:36:07.089Z,37.80
2023-01-29T15:38:35.122Z,37.80
2023-01-29T15:41:20.224Z,37.80
2023-01-29T15:43:57.025Z,37.90
2023-01-29T15:46:32.687Z,38.10
2023-01-29T15:49:06.362Z,38.00
2023-01-29T15:51:33.910Z,38.00
2023-01-29T15:54:03.713Z,38.10
2023-01-29T15:56:51.884Z,37.90
2023-01-29T15:59:24.464Z,38.20
2023-01-29T16:01:51.459Z,38.00
2023-01-29T16:04:29.109Z,38.20
2023-01-29T16:06:58.115Z,38.10
2023-01-29T16:09:26.774Z,38.00
2023-01-29T16:11:57.662Z,38.10
2023-01-29T16:14:26.715Z,38.20
2023-01-29T16:16:54.438Z,38.40
2023-01-29T16:19:27.619Z,38.60
2023-01-29T16:22:03.732Z,38.60
2023-01-29T16:24:32.762Z,38.70
2023-01-29T16:27:13.701Z,38.40
2023-01-29T16:29:40.660Z,38.60
2023-01-29T16:32:12.365Z,38.70
2023-01-29T16:34:42.397Z,38.60
2023-01-29T16:37:25.859Z,38.80
2023-01-29T16:39:53.201Z,38.90
2023-01-29T16:42:23.888Z,38.90
2023-01-29T16:44:58.299Z,39.00
2023-01-29T16:47:41.467Z,39.20
2023-01-29T16:50:46.273Z,39.30
2023-01-29T16:53:23.378Z,39.40
2023-01-29T16:55:52.625Z,39.60
2023-01-29T16:58:28.148Z,39.70
2023-01-29T17:01:09.475Z,40.00
2023-01-29T17:03:38.420Z,40.10
2023-01-29T17:06:13.775Z,40.30
2023-01-29T17:08:43.923Z,40.40
2023-01-29T17:11:14.037Z,40.50
2023-01-29T17:13:43.719Z,40.60
2023-01-29T17:16:24.312Z,40.70
2023-01-29T17:18:51.251Z,40.70
2023-01-29T17:21:18.186Z,40.70
2023-01-29T17:23:45.174Z,40.90
2023-01-29T17:26:14.050Z,41.00
2023-01-29T17:28:41.810Z,41.00
2023-01-29T17:31:09.376Z,41.10
2023-01-29T17:33:39.557Z,41.20
2023-01-29T17:36:09.084Z,41.40
2023-01-29T17:38:35.941Z,41.50
2023-01-29T17:41:21.464Z,41.60
2023-01-29T17:43:48.697Z,41.60
2023-01-29T17:46:17.365Z,41.70
2023-01-29T17:48:44.866Z,41.60
2023-01-29T17:51:16.382Z,41.80
2023-01-29T17:53:46.244Z,42.00
2023-01-29T17:56:29.571Z,42.00
2023-01-29T17:58:56.849Z,42.00
2023-01-29T18:01:23.823Z,42.10
2023-01-29T18:03:50.761Z,42.20
2023-01-29T18:06:28.170Z,42.30
2023-01-29T18:08:56.364Z,42.40
2023-01-29T18:11:23.537Z,42.30
2023-01-29T18:13:50.905Z,42.40
2023-01-29T18:16:18.525Z,42.40
2023-01-29T18:18:45.472Z,42.40
2023-01-29T18:21:12.362Z,42.40
2023-01-29T18:23:39.345Z,42.40
2023-01-29T18:26:07.613Z,42.60
2023-01-29T18:28:34.566Z,42.40
2023-01-29T18:31:02.640Z,42.40
2023-01-29T18:33:29.652Z,42.60
2023-01-29T18:35:56.793Z,42.70
2023-01-29T18:38:24.021Z,42.70
2023-01-29T18:40:51.050Z,42.80
2023-01-29T18:43:18.004Z,42.80
2023-01-29T18:45:44.938Z,43.00
2023-01-29T18:48:11.825Z,43.00
2023-01-29T18:50:38.696Z,43.20
2023-01-29T18:53:05.610Z,43.10
2023-01-29T18:55:32.441Z,43.20
2023-01-29T18:58:26.740Z,43.20
2023-01-29T19:00:47.911Z,43.40
2023-01-29T19:03:15.002Z,43.30
2023-01-29T19:05:41.949Z,44.00
2023-01-29T19:08:09.286Z,43.50
2023-01-29T19:10:36.486Z,43.70
2023-01-29T19:13:05.747Z,43.50
2023-01-29T19:15:34.045Z,43.60
2023-01-29T19:18:01.147Z,43.70
2023-01-29T19:20:28.146Z,43.90
2023-01-29T19:22:55.088Z,43.90
2023-01-29T19:25:21.993Z,44.00
2023-01-29T19:27:48.867Z,44.00
2023-01-29T19:30:15.988Z,44.70
2023-01-29T19:32:42.851Z,44.10
2023-01-29T19:35:09.737Z,44.10
2023-01-29T19:37:36.546Z,44.20
2023-01-29T19:40:03.647Z,44.30
2023-01-29T19:42:30.513Z,44.20
2023-01-29T19:44:57.318Z,44.30
2023-01-29T19:47:24.332Z,45.10
2023-01-29T19:49:51.203Z,44.50
2023-01-29T19:52:50.278Z,44.60
2023-01-29T19:55:18.480Z,44.60
2023-01-29T19:57:45.698Z,44.60
2023-01-29T20:00:14.901Z,44.80
2023-01-29T20:02:41.773Z,44.80
2023-01-29T20:05:11.302Z,44.90
2023-01-29T20:07:39.968Z,44.90
2023-01-29T20:10:17.105Z,45.00
2023-01-29T20:12:45.151Z,45.10
2023-01-29T20:15:13.301Z,45.20
2023-01-29T20:17:40.463Z,45.40
2023-01-29T20:20:08.657Z,45.40
2023-01-29T20:22:35.734Z,45.60
2023-01-29T20:25:02.758Z,45.60
2023-01-29T20:27:29.561Z,46.30
2023-01-29T20:29:56.414Z,45.70
2023-01-29T20:32:23.310Z,45.90
2023-01-29T20:34:52.276Z,45.90
2023-01-29T20:37:19.660Z,46.00
2023-01-29T20:39:46.883Z,46.00
2023-01-29T20:42:13.900Z,46.10
2023-01-29T20:44:40.896Z,46.20
2023-01-29T20:47:08.557Z,46.30
2023-01-29T20:49:35.476Z,46.40
2023-01-29T20:52:02.307Z,46.30
2023-01-29T20:54:30.190Z,46.30
2023-01-29T20:56:57.319Z,46.50
2023-01-29T20:59:24.798Z,46.50
2023-01-29T21:01:51.721Z,46.50
2023-01-29T21:04:18.602Z,46.60
2023-01-29T21:06:45.439Z,46.60
2023-01-29T21:09:12.293Z,46.70
2023-01-29T21:11:39.125Z,46.80
2023-01-29T21:14:05.977Z,46.70
2023-01-29T21:16:32.903Z,46.80
2023-01-29T21:19:00.145Z,46.70
2023-01-29T21:21:27.034Z,46.70
2023-01-29T21:23:54.547Z,46.70
2023-01-29T21:26:23.281Z,46.40
2023-01-29T21:28:50.240Z,46.40
2023-01-29T21:31:17.757Z,46.40
2023-01-29T21:33:44.752Z,46.50
2023-01-29T21:36:11.877Z,46.60
2023-01-29T21:38:39.528Z,46.60
2023-01-29T21:41:09.673Z,46.80
2023-01-29T21:43:37.313Z,46.80
2023-01-29T21:46:11.491Z,47.40
2023-01-29T21:48:39.683Z,46.80
2023-01-29T21:51:07.462Z,46.80
2023-01-29T21:53:34.938Z,47.00
2023-01-29T21:56:03.367Z,47.00
2023-01-29T21:58:30.676Z,47.00
2023-01-29T22:01:18.480Z,47.00
2023-01-29T22:03:47.047Z,47.10
2023-01-29T22:06:14.553Z,47.10
2023-01-29T22:08:41.420Z,47.00
2023-01-29T22:11:08.659Z,47.10
2023-01-29T22:13:35.715Z,47.00
2023-01-29T22:16:02.627Z,47.00
2023-01-29T22:18:29.472Z,47.00
2023-01-29T22:20:57.590Z,47.50
2023-01-29T22:23:24.971Z,46.80
2023-01-29T22:25:51.787Z,46.60
2023-01-29T22:28:18.854Z,46.50
2023-01-29T22:30:45.750Z,46.40
2023-01-29T22:33:12.792Z,46.30
2023-01-29T22:35:39.786Z,46.10
2023-01-29T22:38:07.792Z,46.00
2023-01-29T22:40:34.639Z,46.00
2023-01-29T22:43:01.466Z,45.90
2023-01-29T22:45:28.291Z,45.90
2023-01-29T22:47:55.175Z,45.90
2023-01-29T22:50:22.044Z,46.00
2023-01-29T22:52:54.184Z,46.10
2023-01-29T22:55:21.298Z,46.20
2023-01-29T22:57:51.067Z,46.20
2023-01-29T23:00:18.837Z,46.30
2023-01-29T23:02:50.217Z,46.50
2023-01-29T23:05:17.922Z,46.70
2023-01-29T23:07:45.533Z,46.90
2023-01-29T23:10:14.777Z,46.90
2023-01-29T23:12:41.794Z,47.10
2023-01-29T23:15:08.895Z,47.10
2023-01-29T23:17:35.810Z,47.10
2023-01-29T23:20:02.694Z,47.20
2023-01-29T23:22:29.528Z,47.40
2023-01-29T23:24:56.534Z,47.70
2023-01-29T23:27:23.530Z,47.90
2023-01-29T23:29:50.335Z,48.00
2023-01-29T23:32:20.206Z,48.10
2023-01-29T23:34:47.134Z,48.00
2023-01-29T23:37:14.077Z,47.80
2023-01-29T23:39:40.879Z,47.80
2023-01-29T23:42:07.818Z,48.00
2023-01-29T23:44:35.617Z,48.10
2023-01-29T23:47:02.430Z,48.40
2023-01-29T23:49:29.317Z,48.50
2023-01-29T23:51:56.276Z,48.80
2023-01-29T23:54:23.385Z,49.00
2023-01-29T23:56:50.300Z,49.10
2023-01-29T23:59:17.387Z,49.20
